Aviation Digital Data Service (ADDS)

Output produced by METARs form (0330 UTC 02 March 2015)
found at http://www.aviationweather.gov/adds/metars/
 
KUNV 020315Z AUTO 00000KT 1 1/2SM -SN BKN010 OVC015 M03/M03 A3012 RMK AO2 T10261031
KUNV 020255Z AUTO 00000KT 2 1/2SM -SN OVC012 M02/M03 A3013 RMK AO2 6//// T10251031
KUNV 020242Z 00000KT 1SM -SN BR OVC012 M03/M03 A3013
KUNV 020153Z 00000KT 1 1/2SM -SN BR OVC015 M03/M03 A3015
KUNV 020053Z 00000KT 1SM -SN BR OVC009 M03/M03 A3017
KUNV 012353Z 21004KT 1 1/2SM -SN BR OVC011 M03/M04 A3019
KUNV 012253Z 22004KT 1SM -SN BR OVC012 M03/M04 A3021
KUNV 012153Z 21005KT 1 1/2SM -SN BR OVC021 M03/M05 A3022
KUNV 012053Z 20004KT 3/4SM -SN OVC017 M03/M05 A3025
KUNV 011953Z 22006KT 3/4SM -SN BKN010 OVC021 M03/M05 A3027
KUNV 011853Z 21006KT 1SM -SN BKN010 OVC019 M03/M05 A3031
KUNV 011753Z 21005KT 1SM -SN OVC010 M04/M06 A3035
KUNV 011653Z 21006KT 1SM -SN OVC011 M04/M07 A3039
KUNV 011553Z 21010KT 1SM -SN BR SCT011 OVC020 M05/M07 A3040
KUNV 011453Z 21010KT 1SM -SN BR SCT009 OVC021 M06/M08 A3044
KUNV 011353Z 21008KT 2SM -SN BR OVC021 M07/M09 A3045
KUNV 011253Z 22005KT 2SM -SN BR OVC021 M07/M09 A3046
KUNV 011153Z 00000KT 2SM -SN BR OVC013 M08/M09 A3047
KUNV 011053Z 00000KT 2SM -SN BR BKN019 OVC026 M08/M10 A3049
KUNV 011035Z AUTO 00000KT 3SM -SN SCT021 BKN035 OVC043 M08/M10 A3051 RMK AO2 T10801098
KUNV 011015Z AUTO 00000KT 4SM -SN SCT016 BKN036 OVC047 M08/M10 A3052 RMK AO2 T10801100
KUNV 010955Z AUTO 23004KT 3SM -SN BKN016 BKN022 OVC027 M08/M10 A3052 RMK AO2 T10801100
KUNV 010935Z AUTO 23004KT 5SM -SN SCT014 BKN024 OVC040 M08/M10 A3052 RMK AO2 T10801100
KUNV 010915Z AUTO 00000KT 3SM -SN BKN010 BKN015 OVC021 M08/M10 A3052 RMK AO2 T10851105
KUNV 010855Z AUTO 00000KT 1 3/4SM -SN OVC010 M08/M12 A3053 RMK AO2 T10831116
KUNV 010835Z AUTO 22005KT 4SM -SN BKN014 BKN019 OVC024 M08/M14 A3054 RMK AO2 T10761143
KUNV 010815Z AUTO 00000KT 10SM OVC025 M08/M16 A3055 RMK AO2 T10811157
KUNV 010755Z AUTO 00000KT 10SM OVC027 M08/M14 A3057 RMK AO2 T10851139
KUNV 010735Z AUTO 22003KT 10SM SCT027 BKN034 OVC042 M08/M15 A3057 RMK AO2 T10851147
KUNV 010715Z AUTO 00000KT 10SM BKN043 OVC060 M09/M16 A3057 RMK AO2 T10871157
KUNV 010655Z AUTO 00000KT 10SM BKN050 OVC070 M08/M16 A3057 RMK AO2 T10851156
KUNV 010635Z AUTO 00000KT 10SM SCT070 OVC080 M09/M17 A3057 RMK AO2 T10921167
KUNV 010615Z AUTO 00000KT 10SM BKN090 OVC110 M09/M17 A3058 RMK AO2 T10951174
KUNV 010555Z AUTO 00000KT 10SM SCT110 M09/M18 A3058 RMK AO2 T10931184 11061 21098
KUNV 010535Z AUTO 00000KT 10SM SCT120 M09/M18 A3059 RMK AO2 T10911185
KUNV 010515Z AUTO 26004KT 10SM CLR M09/M18 A3060 RMK AO2 T10911185
KUNV 010455Z AUTO 32004KT 10SM CLR M09/M19 A3059 RMK AO2 T10941187
KUNV 010435Z AUTO 00000KT 10SM CLR M08/M19 A3059 RMK AO2 T10851187
KUNV 010415Z AUTO 00000KT 10SM CLR M09/M19 A3061 RMK AO2 T10891190
KUNV 010355Z AUTO 25003KT 10SM CLR M08/M19 A3062 RMK AO2 T10831186 410411185
KUNV 010335Z AUTO 28003KT 10SM CLR M09/M19 A3063 RMK AO2 T10861189
KUNV 010315Z AUTO 31003KT 10SM CLR M09/M19 A3063 RMK AO2 T10871190
KUNV 010255Z AUTO 00000KT 10SM CLR M08/M19 A3064 RMK AO2 T10841195
KUNV 282353Z 00000KT 10SM SKC M06/M21 A3064
KUNV 282253Z 00000KT 10SM SKC M05/M21 A3065
KUNV 282153Z 00000KT 10SM SKC M04/M21 A3065
KUNV 282053Z 00000KT 10SM SKC M04/M21 A3067
KUNV 281953Z 00000KT 10SM SKC M05/M21 A3068
KUNV 281853Z 00000KT 10SM SKC M06/M20 A3069
KUNV 281753Z 00000KT 10SM SKC M08/M20 A3072
KUNV 281653Z 00000KT 10SM SKC M08/M20 A3075
KUNV 281553Z 00000KT 10SM SKC M10/M19 A3077